Time;durP1;ratioP1;P1;durP2;ratioP2;P2;SDS_P1;SDS_P2;PMS_P1;PMS_P2;Temp;Humidity;BMP_temperature;BMP_pressure;BME280_temperature;BME280_humidity;BME280_pressure;Samples;Min_cycle;Max_cycle;Signal;HPM_P1;HPM_P2
2021/04/09 00:00:14;;;;;;;1.20;1.10;;;19.00;49.90;;;;;;10416575;28;20249;-52
2021/04/09 00:05:36;;;;;;;1.40;1.10;;;19.00;50.00;;;;;;10462762;22;20225;-67
2021/04/09 00:10:58;;;;;;;2.13;1.03;;;19.00;50.00;;;;;;10456112;28;20239;-67
2021/04/09 00:16:20;;;;;;;1.50;0.80;;;19.00;49.90;;;;;;10447753;28;20229;-67
2021/04/09 00:21:43;;;;;;;0.90;0.80;;;19.00;49.80;;;;;;10497175;28;20208;-67
2021/04/09 00:27:06;;;;;;;1.70;1.20;;;19.00;49.90;;;;;;10497696;28;20220;-68
2021/04/09 00:32:28;;;;;;;1.10;1.00;;;19.00;49.90;;;;;;10497454;28;20219;-66
2021/04/09 00:37:51;;;;;;;1.57;1.00;;;19.00;49.80;;;;;;10496842;28;20227;-67
2021/04/09 00:43:14;;;;;;;1.33;0.90;;;19.00;49.80;;;;;;10476950;28;20259;-70
2021/04/09 00:48:35;;;;;;;1.97;1.00;;;19.00;49.80;;;;;;10456029;28;20213;-69
2021/04/09 00:53:57;;;;;;;1.50;1.00;;;19.00;49.80;;;;;;10479785;28;20595;-68
2021/04/09 00:59:20;;;;;;;1.17;0.83;;;19.00;49.80;;;;;;10497890;28;20214;-68
2021/04/09 01:04:42;;;;;;;1.83;1.10;;;19.00;49.80;;;;;;10497939;28;20199;-68
2021/04/09 01:10:05;;;;;;;1.00;0.90;;;19.00;49.70;;;;;;10496745;28;20227;-68
2021/04/09 01:15:28;;;;;;;1.70;1.20;;;19.00;49.70;;;;;;10495455;28;20623;-67
2021/04/09 01:21:18;;;;;;;1.40;0.90;;;19.00;49.80;;;;;;10497224;28;20204;-71
2021/04/09 01:27:25;;;;;;;1.70;0.97;;;19.00;49.60;;;;;;10489678;28;20224;-68
2021/04/09 01:32:48;;;;;;;1.33;1.00;;;19.00;49.50;;;;;;10494157;28;20227;-67
2021/04/09 01:38:11;;;;;;;1.23;1.03;;;19.00;49.60;;;;;;10496081;28;20216;-68
2021/04/09 01:43:34;;;;;;;1.83;1.07;;;18.90;49.60;;;;;;10471021;28;20664;-67
2021/04/09 01:48:57;;;;;;;1.20;1.10;;;19.00;49.70;;;;;;10456159;28;20679;-67
2021/04/09 01:54:21;;;;;;;1.37;0.90;;;19.00;49.60;;;;;;10480503;28;20233;-68
2021/04/09 01:59:43;;;;;;;1.83;1.13;;;19.00;49.60;;;;;;10473881;28;20600;-67
2021/04/09 02:05:07;;;;;;;1.57;1.13;;;18.90;49.60;;;;;;10454771;28;20682;-67
2021/04/09 02:10:29;;;;;;;0.97;0.87;;;18.90;49.60;;;;;;10475446;28;20273;-67
2021/04/09 02:15:54;;;;;;;2.03;1.10;;;18.90;49.60;;;;;;10494743;28;20220;-67
2021/04/09 02:21:17;;;;;;;1.30;1.00;;;19.00;49.50;;;;;;10494733;28;20224;-68
2021/04/09 02:26:38;;;;;;;1.43;0.97;;;19.00;49.50;;;;;;10494069;28;20221;-70
2021/04/09 02:32:01;;;;;;;1.10;0.80;;;18.90;49.50;;;;;;10480004;28;20227;-68
2021/04/09 02:37:24;;;;;;;1.43;0.90;;;18.90;49.50;;;;;;10492329;28;20216;-67
2021/04/09 02:42:47;;;;;;;0.73;0.73;;;18.90;49.40;;;;;;10478028;28;20196;-67
2021/04/09 02:48:12;;;;;;;1.13;0.80;;;18.90;49.40;;;;;;10452423;28;20220;-70
2021/04/09 02:53:38;;;;;;;1.47;0.80;;;18.90;49.40;;;;;;10480351;28;20213;-68
2021/04/09 02:59:01;;;;;;;1.40;1.00;;;18.90;49.50;;;;;;10492913;28;20216;-67
2021/04/09 03:04:23;;;;;;;2.03;1.10;;;18.90;49.50;;;;;;10477312;28;20189;-68
2021/04/09 03:09:46;;;;;;;1.77;1.00;;;18.90;49.40;;;;;;10451309;28;20224;-68
2021/04/09 03:15:10;;;;;;;1.07;0.80;;;18.90;49.40;;;;;;10485194;28;20544;-68
2021/04/09 03:20:32;;;;;;;1.10;0.97;;;18.90;49.40;;;;;;10491222;28;20571;-67
2021/04/09 03:25:54;;;;;;;1.10;1.00;;;18.90;49.50;;;;;;10491577;28;20600;-68
2021/04/09 03:31:16;;;;;;;1.13;0.90;;;18.90;49.40;;;;;;10499231;28;20208;-68
2021/04/09 03:36:38;;;;;;;0.93;0.80;;;18.90;49.40;;;;;;10498009;28;20204;-67
2021/04/09 03:42:00;;;;;;;1.07;0.87;;;18.90;49.40;;;;;;10469043;28;20667;-68
2021/04/09 03:47:22;;;;;;;1.50;1.00;;;18.90;49.30;;;;;;10500634;28;20560;-68
2021/04/09 03:52:43;;;;;;;1.37;0.80;;;19.00;49.10;;;;;;10478676;28;20217;-68
2021/04/09 03:58:06;;;;;;;2.50;0.83;;;19.00;49.00;;;;;;10459296;28;20765;-68
2021/04/09 04:03:27;;;;;;;1.50;0.90;;;19.00;48.90;;;;;;10494617;28;20276;-71
2021/04/09 04:08:50;;;;;;;1.90;1.17;;;19.00;48.90;;;;;;10498178;28;20273;-69
2021/04/09 04:14:12;;;;;;;1.63;0.93;;;19.10;49.00;;;;;;10498959;28;20220;-67
2021/04/09 04:19:34;;;;;;;2.07;0.93;;;19.00;48.90;;;;;;10491779;28;20687;-67
2021/04/09 04:24:56;;;;;;;1.83;1.20;;;19.10;49.00;;;;;;10497614;28;20192;-68
2021/04/09 04:30:19;;;;;;;1.07;0.93;;;19.10;49.00;;;;;;10488759;28;20208;-69
2021/04/09 04:35:40;;;;;;;1.03;0.70;;;19.10;48.80;;;;;;10457155;28;20208;-68
2021/04/09 04:41:02;;;;;;;1.47;0.80;;;19.20;48.80;;;;;;10457738;28;20193;-69
2021/04/09 04:46:25;;;;;;;1.77;0.90;;;19.20;48.80;;;;;;10497739;28;20212;-68
2021/04/09 04:51:47;;;;;;;1.17;0.90;;;19.20;48.80;;;;;;10488998;28;20691;-68
2021/04/09 04:57:09;;;;;;;0.77;0.60;;;19.20;48.80;;;;;;10479777;28;20213;-67
2021/04/09 05:02:31;;;;;;;1.00;0.90;;;19.10;48.80;;;;;;10456232;28;20580;-67
2021/04/09 05:07:53;;;;;;;1.23;0.90;;;19.20;48.80;;;;;;10493300;28;20228;-67
2021/04/09 05:13:14;;;;;;;1.47;0.87;;;19.20;48.70;;;;;;10495827;28;20216;-68
2021/04/09 05:18:37;;;;;;;1.13;0.90;;;19.20;48.60;;;;;;10496388;28;20711;-68
2021/04/09 05:23:58;;;;;;;1.30;0.90;;;19.20;48.60;;;;;;10457319;28;20242;-67
2021/04/09 05:29:20;;;;;;;1.73;0.90;;;19.20;48.60;;;;;;10459320;28;20232;-68
2021/04/09 05:34:43;;;;;;;1.23;0.70;;;19.20;48.70;;;;;;10455609;28;20224;-68
2021/04/09 05:40:06;;;;;;;1.00;0.90;;;19.20;48.70;;;;;;10454396;28;20216;-68
2021/04/09 05:45:28;;;;;;;0.77;0.77;;;19.20;48.70;;;;;;10492157;28;20587;-68
2021/04/09 05:50:50;;;;;;;1.00;0.90;;;19.30;48.70;;;;;;10485798;28;20220;-68
2021/04/09 05:56:12;;;;;;;0.80;0.80;;;19.20;48.60;;;;;;10454075;28;20595;-67
2021/04/09 06:01:34;;;;;;;0.90;0.90;;;19.20;48.70;;;;;;10453424;28;20664;-68
2021/04/09 06:06:56;;;;;;;0.80;0.70;;;19.20;48.70;;;;;;10467295;22;20233;-56
2021/04/09 06:12:18;;;;;;;1.07;0.80;;;19.20;48.70;;;;;;10425922;28;20222;-55
2021/04/09 06:17:39;;;;;;;1.30;1.00;;;19.20;48.70;;;;;;10402639;28;20613;-57
2021/04/09 06:23:02;;;;;;;1.43;0.77;;;19.20;48.60;;;;;;10358827;28;20715;-60
2021/04/09 06:28:23;;;;;;;1.90;1.10;;;19.20;48.60;;;;;;10389537;28;20213;-56
2021/04/09 06:33:45;;;;;;;1.90;0.73;;;19.20;48.70;;;;;;10406292;28;20279;-56
2021/04/09 06:39:08;;;;;;;2.60;0.80;;;19.20;48.80;;;;;;10409464;28;20622;-54
2021/04/09 06:44:31;;;;;;;1.07;0.80;;;19.20;49.40;;;;;;10408731;28;20213;-52
2021/04/09 06:49:53;;;;;;;2.33;1.20;;;19.20;48.80;;;;;;10411030;28;20190;-55
2021/04/09 06:55:19;;;;;;;1.57;1.00;;;19.20;48.80;;;;;;10411362;28;20217;-57
2021/04/09 07:00:41;;;;;;;1.03;0.80;;;19.20;48.80;;;;;;10417493;28;20683;-54
2021/04/09 07:06:02;;;;;;;2.43;1.10;;;19.20;48.80;;;;;;10449493;28;20197;-52
2021/04/09 07:11:28;;;;;;;1.80;0.90;;;19.20;48.90;;;;;;10450279;28;20217;-52
2021/04/09 07:16:57;;;;;;;1.53;1.03;;;19.20;48.90;;;;;;10406036;28;20238;-54
2021/04/09 07:22:29;;;;;;;1.63;0.97;;;19.20;48.80;;;;;;10369642;28;20214;-55
2021/04/09 07:28:08;;;;;;;1.40;0.87;;;19.20;48.70;;;;;;10372760;28;20678;-54
2021/04/09 07:33:30;;;;;;;3.37;0.97;;;19.20;48.80;;;;;;10408870;28;20583;-52
2021/04/09 07:38:52;;;;;;;1.47;0.90;;;19.20;48.90;;;;;;10409245;28;20198;-54
2021/04/09 07:44:16;;;;;;;4.53;1.73;;;19.20;48.90;;;;;;10401675;28;20214;-56
2021/04/09 07:49:38;;;;;;;3.27;1.63;;;19.20;48.70;;;;;;10363021;28;20198;-52
2021/04/09 07:55:11;;;;;;;4.23;1.33;;;19.10;48.30;;;;;;10389078;28;20222;-53
2021/04/09 08:00:34;;;;;;;3.97;1.20;;;19.20;48.60;;;;;;10406193;28;20224;-55
2021/04/09 08:06:05;;;;;;;4.40;1.67;;;19.10;48.90;;;;;;10408933;28;20194;-53
2021/04/09 08:11:30;;;;;;;8.30;2.70;;;19.10;48.20;;;;;;10408027;28;20321;-67
2021/04/09 08:16:54;;;;;;;3.80;2.77;;;18.90;46.20;;;;;;10414156;28;20206;-66
2021/04/09 08:22:16;;;;;;;7.23;3.17;;;18.60;45.20;;;;;;10391703;28;20691;-66
2021/04/09 08:27:38;;;;;;;7.70;3.23;;;18.50;43.50;;;;;;10412396;28;20198;-66
2021/04/09 08:33:01;;;;;;;5.23;3.10;;;18.40;42.90;;;;;;10396859;28;20234;-66
2021/04/09 08:38:23;;;;;;;6.90;2.97;;;18.30;42.30;;;;;;10397182;28;20208;-66
2021/04/09 08:43:45;;;;;;;4.07;2.10;;;18.30;42.70;;;;;;10397418;28;20241;-66
2021/04/09 08:49:09;;;;;;;3.90;2.20;;;18.50;43.50;;;;;;10410684;28;20193;-66
2021/04/09 08:54:32;;;;;;;5.40;1.60;;;18.60;44.20;;;;;;10410839;28;20721;-66
2021/04/09 09:00:09;;;;;;;3.00;1.60;;;18.60;45.10;;;;;;10412108;28;20197;-66
2021/04/09 09:05:33;;;;;;;3.13;1.60;;;18.70;45.70;;;;;;10414363;28;20194;-66
2021/04/09 09:10:56;;;;;;;2.27;1.57;;;18.70;46.10;;;;;;10413856;28;20244;-66
2021/04/09 09:16:18;;;;;;;1.60;0.93;;;18.80;46.50;;;;;;10410675;28;20284;-66
2021/04/09 09:21:41;;;;;;;2.03;1.00;;;18.70;46.70;;;;;;10405892;28;20594;-66
2021/04/09 09:27:10;;;;;;;1.93;1.20;;;18.80;47.10;;;;;;10413146;28;20583;-66
2021/04/09 09:32:31;;;;;;;1.80;0.97;;;18.80;47.30;;;;;;10363179;28;20241;-66
2021/04/09 09:37:54;;;;;;;1.57;0.90;;;18.80;48.00;;;;;;10391695;28;20600;-66
2021/04/09 09:43:31;;;;;;;4.93;2.10;;;18.80;47.50;;;;;;10413028;28;20216;-64
2021/04/09 09:49:07;;;;;;;4.43;1.90;;;18.70;46.40;;;;;;10450739;28;20198;-65
2021/04/09 09:54:31;;;;;;;6.33;2.47;;;18.70;45.70;;;;;;10444020;28;20212;-63
2021/04/09 09:59:52;;;;;;;3.53;1.50;;;18.60;45.70;;;;;;10388017;28;20194;-63
2021/04/09 10:05:15;;;;;;;3.17;1.30;;;18.70;45.80;;;;;;10411193;28;20194;-63
2021/04/09 10:10:48;;;;;;;2.80;1.20;;;18.70;46.10;;;;;;10373016;28;20280;-63
2021/04/09 10:16:12;;;;;;;1.90;1.17;;;18.70;46.50;;;;;;10369039;28;20191;-63
2021/04/09 10:21:35;;;;;;;2.57;1.13;;;18.80;47.30;;;;;;10372275;28;20209;-63
2021/04/09 10:27:02;;;;;;;1.90;1.03;;;18.80;47.10;;;;;;10407692;28;20205;-63
2021/04/09 10:32:25;;;;;;;3.03;1.20;;;18.80;47.30;;;;;;10409676;28;20225;-63
2021/04/09 10:37:47;;;;;;;2.20;0.90;;;18.80;47.50;;;;;;10409849;28;20202;-63
2021/04/09 10:43:09;;;;;;;2.17;1.10;;;18.80;47.70;;;;;;10407396;28;20225;-63
2021/04/09 10:48:31;;;;;;;1.83;1.03;;;18.80;47.90;;;;;;10408381;28;20193;-63
2021/04/09 10:53:54;;;;;;;1.00;0.70;;;18.90;48.00;;;;;;10389069;28;20222;-64
2021/04/09 10:59:17;;;;;;;1.53;0.80;;;18.90;48.10;;;;;;10367449;28;20269;-63
2021/04/09 11:04:39;;;;;;;3.70;1.00;;;18.80;48.20;;;;;;10406914;28;20217;-64
2021/04/09 11:10:01;;;;;;;1.87;1.00;;;18.80;48.40;;;;;;10407503;28;20213;-63
2021/04/09 11:15:24;;;;;;;1.73;0.93;;;18.80;48.50;;;;;;10409441;28;20213;-63
2021/04/09 11:20:46;;;;;;;1.90;0.90;;;18.80;48.70;;;;;;10383976;28;20218;-64
2021/04/09 11:26:18;;;;;;;1.20;0.90;;;18.80;49.30;;;;;;10408589;28;20614;-65
2021/04/09 11:31:41;;;;;;;1.30;0.90;;;18.80;49.00;;;;;;10395077;28;20221;-64
2021/04/09 11:37:03;;;;;;;1.80;0.70;;;18.90;49.00;;;;;;10433283;28;20254;-64
2021/04/09 11:42:29;;;;;;;1.23;0.80;;;18.90;49.10;;;;;;10448034;28;20209;-64
2021/04/09 11:47:52;;;;;;;1.57;0.83;;;18.80;49.10;;;;;;10448396;28;20193;-65
2021/04/09 11:53:13;;;;;;;3.33;1.00;;;18.80;49.30;;;;;;10408871;28;20226;-65
2021/04/09 11:58:42;;;;;;;1.20;0.80;;;18.80;49.30;;;;;;10375117;28;20205;-63
2021/04/09 12:04:05;;;;;;;0.67;0.60;;;18.80;49.40;;;;;;10375170;28;20217;-63
2021/04/09 12:09:26;;;;;;;1.63;0.83;;;18.80;49.50;;;;;;10451337;22;20584;-67
2021/04/09 12:14:50;;;;;;;1.90;0.80;;;18.80;49.50;;;;;;10447991;28;20221;-67
2021/04/09 12:20:14;;;;;;;3.10;0.80;;;18.80;49.50;;;;;;10449089;28;20267;-67
2021/04/09 12:25:36;;;;;;;1.73;0.70;;;18.80;49.50;;;;;;10443596;28;20194;-68
2021/04/09 12:30:57;;;;;;;0.80;0.70;;;18.80;49.50;;;;;;10416154;28;20209;-67
2021/04/09 12:36:20;;;;;;;2.70;0.70;;;18.80;49.60;;;;;;10424010;28;20229;-68
2021/04/09 12:41:42;;;;;;;1.70;0.90;;;18.80;49.60;;;;;;10425925;28;20193;-68
2021/04/09 12:47:04;;;;;;;1.47;0.63;;;18.80;49.70;;;;;;10457253;28;20228;-67
2021/04/09 12:52:26;;;;;;;1.40;0.90;;;18.80;49.80;;;;;;10456317;28;20205;-67
2021/04/09 12:57:48;;;;;;;0.80;0.70;;;18.80;49.70;;;;;;10455267;28;20213;-68
2021/04/09 13:03:09;;;;;;;1.10;0.67;;;18.80;49.70;;;;;;10454285;28;20695;-68
2021/04/09 13:08:32;;;;;;;3.40;0.77;;;18.80;49.70;;;;;;10454770;28;20692;-67
2021/04/09 13:13:55;;;;;;;1.27;0.80;;;18.80;49.80;;;;;;10455366;28;20247;-68
2021/04/09 13:19:17;;;;;;;2.33;1.17;;;18.80;49.90;;;;;;10445750;28;20215;-68
2021/04/09 13:24:39;;;;;;;1.10;0.70;;;18.90;49.90;;;;;;10448463;28;20186;-67
2021/04/09 13:30:02;;;;;;;1.33;0.70;;;18.90;50.00;;;;;;10454963;28;20225;-68
2021/04/09 13:35:23;;;;;;;2.03;0.70;;;18.90;49.90;;;;;;10455230;28;20227;-68
2021/04/09 13:40:46;;;;;;;3.37;1.03;;;18.90;49.90;;;;;;10454913;28;20216;-67
2021/04/09 13:46:08;;;;;;;0.90;0.60;;;18.90;49.90;;;;;;10412923;28;20188;-67
2021/04/09 13:51:30;;;;;;;1.13;0.70;;;19.00;49.90;;;;;;10413777;28;20229;-63
2021/04/09 13:56:52;;;;;;;1.80;0.80;;;19.00;49.90;;;;;;10426160;28;20217;-61
2021/04/09 14:02:14;;;;;;;2.50;0.53;;;19.00;50.00;;;;;;10452389;28;20200;-63
2021/04/09 14:07:36;;;;;;;1.53;0.70;;;19.00;50.10;;;;;;10452069;28;20220;-63
2021/04/09 14:12:58;;;;;;;0.80;0.53;;;19.00;50.20;;;;;;10446465;28;20217;-63
2021/04/09 14:18:20;;;;;;;0.97;0.60;;;19.00;50.20;;;;;;10448075;28;20213;-64
2021/04/09 14:23:42;;;;;;;0.50;0.50;;;19.00;50.20;;;;;;10452203;28;20584;-64
2021/04/09 14:29:04;;;;;;;1.23;0.70;;;19.00;50.30;;;;;;10429347;28;20218;-64
2021/04/09 14:34:26;;;;;;;1.17;0.63;;;19.00;50.40;;;;;;10421933;28;20213;-64
2021/04/09 14:39:48;;;;;;;1.20;0.80;;;19.00;50.40;;;;;;10452648;28;20223;-64
2021/04/09 14:45:13;;;;;;;1.47;0.60;;;19.00;50.40;;;;;;10415437;28;20198;-64
2021/04/09 14:50:35;;;;;;;0.87;0.67;;;19.00;50.50;;;;;;10411385;28;20213;-64
2021/04/09 14:55:57;;;;;;;0.47;0.47;;;19.00;50.60;;;;;;10410662;28;20218;-65
2021/04/09 15:01:20;;;;;;;1.20;0.50;;;19.00;50.60;;;;;;10441426;28;20245;-65
2021/04/09 15:06:42;;;;;;;0.63;0.57;;;19.00;50.80;;;;;;10445389;28;20228;-64
2021/04/09 15:12:04;;;;;;;0.57;0.50;;;19.00;51.00;;;;;;10418517;28;20262;-64
2021/04/09 15:17:27;;;;;;;1.03;0.63;;;18.90;51.00;;;;;;10447514;28;20219;-65
2021/04/09 15:22:49;;;;;;;1.23;0.60;;;18.90;51.00;;;;;;10453545;28;20185;-65
2021/04/09 15:28:10;;;;;;;1.23;0.67;;;18.90;50.90;;;;;;10458773;28;20228;-65
2021/04/09 15:33:33;;;;;;;1.07;0.50;;;19.00;51.00;;;;;;10428251;28;20213;-65
2021/04/09 15:38:58;;;;;;;2.87;0.50;;;19.00;51.10;;;;;;10457274;28;20699;-64
2021/04/09 15:44:20;;;;;;;2.20;0.53;;;19.00;51.10;;;;;;10459371;28;20604;-65
2021/04/09 15:49:42;;;;;;;0.80;0.43;;;19.00;51.10;;;;;;10458903;28;20217;-66
2021/04/09 15:55:05;;;;;;;0.90;0.57;;;19.00;51.10;;;;;;10458229;28;20216;-65
2021/04/09 16:00:27;;;;;;;0.77;0.47;;;19.00;51.20;;;;;;10458647;28;20749;-65
2021/04/09 16:05:49;;;;;;;0.60;0.60;;;19.00;51.20;;;;;;10457739;28;20701;-65
2021/04/09 16:11:11;;;;;;;0.70;0.60;;;18.90;51.20;;;;;;10459006;28;20208;-64
2021/04/09 16:16:33;;;;;;;1.37;0.83;;;19.00;51.20;;;;;;10440963;28;20423;-61
2021/04/09 16:21:55;;;;;;;1.90;0.83;;;20.10;47.80;;;;;;10434504;28;20423;-65
2021/04/09 16:27:17;;;;;;;1.87;0.77;;;20.10;48.20;;;;;;10456230;28;20502;-65
2021/04/09 16:32:38;;;;;;;0.77;0.70;;;19.30;50.00;;;;;;10455533;28;20208;-63
2021/04/09 16:38:02;;;;;;;1.13;0.90;;;19.10;50.70;;;;;;10454089;28;20243;-64
2021/04/09 16:43:23;;;;;;;0.93;0.80;;;19.00;51.00;;;;;;10452774;28;20211;-65
2021/04/09 16:48:45;;;;;;;0.97;0.70;;;19.00;51.10;;;;;;10452680;28;20212;-64
2021/04/09 16:54:08;;;;;;;2.00;0.93;;;19.00;51.20;;;;;;10454614;28;20209;-67
2021/04/09 16:59:29;;;;;;;1.23;0.97;;;19.00;51.20;;;;;;10455719;28;20213;-67
2021/04/09 17:04:51;;;;;;;4.53;1.30;;;19.00;51.20;;;;;;10454870;28;20196;-64
2021/04/09 17:10:14;;;;;;;3.58;1.40;;;19.00;51.20;;;;;;10453454;28;20439;-63
2021/04/09 17:15:36;;;;;;;1.93;1.13;;;19.30;50.60;;;;;;10445584;28;20222;-64
2021/04/09 17:20:58;;;;;;;2.53;1.33;;;19.10;51.00;;;;;;10454751;28;20568;-65
2021/04/09 17:26:20;;;;;;;2.40;1.23;;;19.00;51.20;;;;;;10455097;28;20219;-64
2021/04/09 17:31:43;;;;;;;2.33;1.00;;;19.00;51.20;;;;;;10453462;28;20263;-65
2021/04/09 17:37:04;;;;;;;1.87;1.10;;;19.00;51.30;;;;;;10455201;28;20335;-65
2021/04/09 17:42:29;;;;;;;2.67;1.40;;;19.00;51.30;;;;;;10437078;28;20276;-65
2021/04/09 17:47:51;;;;;;;4.57;1.30;;;19.00;51.30;;;;;;10412895;28;20303;-62
2021/04/09 17:53:13;;;;;;;4.83;1.23;;;19.00;51.40;;;;;;10412276;28;20218;-66
2021/04/09 17:58:35;;;;;;;1.67;0.90;;;19.00;51.30;;;;;;10412878;28;20715;-64
2021/04/09 18:03:57;;;;;;;1.80;1.10;;;19.00;51.40;;;;;;10411991;28;20657;-66
2021/04/09 18:09:18;;;;;;;3.03;1.20;;;19.00;51.40;;;;;;10522885;23;20524;-64
2021/04/09 18:14:41;;;;;;;1.93;1.20;;;19.00;51.40;;;;;;10437686;28;20221;-64
2021/04/09 18:20:04;;;;;;;2.03;1.30;;;19.00;51.40;;;;;;10452288;28;20197;-64
2021/04/09 18:25:26;;;;;;;2.03;1.00;;;19.00;51.40;;;;;;10450599;28;20227;-63
2021/04/09 18:30:51;;;;;;;3.70;1.40;;;19.00;51.50;;;;;;10414986;28;20221;-64
2021/04/09 18:36:13;;;;;;;1.70;1.13;;;19.00;51.50;;;;;;10411618;28;20287;-64
2021/04/09 18:41:35;;;;;;;1.43;1.00;;;19.00;51.60;;;;;;10408850;28;20263;-64
2021/04/09 18:46:58;;;;;;;2.20;1.10;;;19.00;51.60;;;;;;10409385;28;20193;-63
2021/04/09 18:52:19;;;;;;;2.80;0.80;;;18.90;51.60;;;;;;10445368;28;20221;-62
2021/04/09 18:57:41;;;;;;;2.17;1.03;;;18.90;51.70;;;;;;10448942;28;20201;-63
2021/04/09 19:03:04;;;;;;;2.13;0.97;;;18.90;51.90;;;;;;10436898;28;20221;-64
2021/04/09 19:08:26;;;;;;;1.23;0.93;;;18.90;51.90;;;;;;10449546;28;20290;-64
2021/04/09 19:13:48;;;;;;;0.93;0.80;;;18.90;51.90;;;;;;10448404;28;20361;-65
2021/04/09 19:19:11;;;;;;;2.30;1.00;;;18.90;51.80;;;;;;10449138;28;20226;-65
2021/04/09 19:24:33;;;;;;;1.63;0.90;;;18.90;51.90;;;;;;10408767;28;20206;-65
2021/04/09 19:29:55;;;;;;;1.87;0.87;;;18.90;52.00;;;;;;10408094;28;20197;-65
2021/04/09 19:35:18;;;;;;;2.23;0.93;;;18.80;52.10;;;;;;10449750;28;20280;-64
2021/04/09 19:40:40;;;;;;;1.20;0.93;;;18.90;52.20;;;;;;10450354;28;20227;-65
2021/04/09 19:46:02;;;;;;;0.97;0.80;;;18.90;52.20;;;;;;10437167;28;20197;-65
2021/04/09 19:51:24;;;;;;;1.60;1.30;;;18.90;52.10;;;;;;10409791;28;20217;-65
2021/04/09 19:56:46;;;;;;;2.00;1.03;;;18.80;52.10;;;;;;10407745;28;20195;-65
2021/04/09 20:02:08;;;;;;;1.80;1.17;;;18.80;52.20;;;;;;10408078;28;20217;-65
2021/04/09 20:07:31;;;;;;;1.27;1.00;;;18.80;52.20;;;;;;10438013;28;20551;-65
2021/04/09 20:12:52;;;;;;;1.70;1.00;;;18.80;52.30;;;;;;10414440;28;20217;-64
2021/04/09 20:18:14;;;;;;;1.37;0.90;;;18.80;52.20;;;;;;10450117;28;20209;-64
2021/04/09 20:23:37;;;;;;;1.10;0.87;;;18.90;52.40;;;;;;10427209;28;20220;-64
2021/04/09 20:28:59;;;;;;;2.80;1.00;;;18.80;52.40;;;;;;10415236;28;20190;-63
2021/04/09 20:34:20;;;;;;;2.63;1.20;;;18.90;52.40;;;;;;10414749;28;20245;-64
2021/04/09 20:39:43;;;;;;;0.90;0.70;;;18.90;52.40;;;;;;10416745;28;20224;-62
2021/04/09 20:45:06;;;;;;;1.70;1.00;;;18.90;52.50;;;;;;10454488;28;20200;-64
2021/04/09 20:50:28;;;;;;;1.57;1.00;;;18.80;52.60;;;;;;10454849;28;20217;-63
2021/04/09 20:55:50;;;;;;;0.93;0.80;;;18.80;52.70;;;;;;10453231;28;20213;-63
2021/04/09 21:01:13;;;;;;;0.80;0.80;;;18.80;52.80;;;;;;10446760;28;20267;-62
2021/04/09 21:06:34;;;;;;;1.47;0.97;;;18.80;52.70;;;;;;10419117;28;20205;-63
2021/04/09 21:11:57;;;;;;;1.90;0.90;;;18.80;52.80;;;;;;10406854;28;20221;-62
2021/04/09 21:17:19;;;;;;;1.20;0.80;;;18.80;52.90;;;;;;10407628;28;20194;-63
2021/04/09 21:22:41;;;;;;;3.40;0.80;;;18.80;52.90;;;;;;10410155;28;20221;-63
2021/04/09 21:28:05;;;;;;;2.70;1.00;;;18.80;52.90;;;;;;10425708;28;20712;-63
2021/04/09 21:33:26;;;;;;;1.20;0.63;;;18.80;52.90;;;;;;10451775;28;20221;-63
2021/04/09 21:38:48;;;;;;;1.30;0.90;;;18.70;52.90;;;;;;10454837;28;20196;-63
2021/04/09 21:44:10;;;;;;;1.30;0.80;;;18.70;53.00;;;;;;10454640;28;20752;-63
2021/04/09 21:49:32;;;;;;;1.43;0.67;;;18.70;53.00;;;;;;10453524;28;20548;-63
2021/04/09 21:54:54;;;;;;;1.87;0.97;;;18.60;53.10;;;;;;10413435;28;20221;-63
2021/04/09 22:00:19;;;;;;;1.80;0.80;;;18.60;53.10;;;;;;10412540;28;20233;-63
2021/04/09 22:05:40;;;;;;;1.43;0.83;;;18.60;53.10;;;;;;10411238;28;20201;-63
2021/04/09 22:11:04;;;;;;;2.23;1.20;;;18.60;53.10;;;;;;10410748;28;20232;-63
2021/04/09 22:16:26;;;;;;;1.03;0.70;;;18.60;53.00;;;;;;10411461;28;20221;-63
2021/04/09 22:21:48;;;;;;;1.30;0.90;;;18.60;52.90;;;;;;10435942;28;20227;-63
2021/04/09 22:27:10;;;;;;;0.87;0.60;;;18.60;52.90;;;;;;10450530;28;20204;-64
2021/04/09 22:32:33;;;;;;;1.50;1.00;;;18.60;52.90;;;;;;10428686;28;20713;-62
2021/04/09 22:37:54;;;;;;;1.37;0.80;;;18.60;52.90;;;;;;10410678;28;20571;-62
2021/04/09 22:43:16;;;;;;;1.60;0.90;;;18.60;52.90;;;;;;10449315;28;20213;-63
2021/04/09 22:48:39;;;;;;;2.23;0.90;;;18.60;52.80;;;;;;10450002;28;20193;-62
2021/04/09 22:54:00;;;;;;;1.73;1.03;;;18.70;52.80;;;;;;10449897;28;20217;-62
2021/04/09 22:59:22;;;;;;;1.27;0.70;;;18.70;52.80;;;;;;10450960;28;20208;-63
2021/04/09 23:04:45;;;;;;;0.87;0.80;;;18.60;52.80;;;;;;10450905;28;20300;-64
2021/04/09 23:10:07;;;;;;;0.80;0.80;;;18.60;52.80;;;;;;10450502;28;20270;-63
2021/04/09 23:15:29;;;;;;;0.80;0.80;;;18.60;52.70;;;;;;10450153;28;20267;-62
2021/04/09 23:20:51;;;;;;;1.00;0.90;;;18.60;52.70;;;;;;10448275;28;20217;-64
2021/04/09 23:26:13;;;;;;;1.00;0.80;;;18.60;52.70;;;;;;10450283;28;20200;-64
2021/04/09 23:31:34;;;;;;;0.90;0.70;;;18.60;52.80;;;;;;10442203;28;20224;-64
2021/04/09 23:36:57;;;;;;;1.30;0.93;;;18.60;52.80;;;;;;10448539;28;20208;-64
2021/04/09 23:42:19;;;;;;;2.00;0.80;;;18.60;52.70;;;;;;10448712;28;20221;-62
2021/04/09 23:47:40;;;;;;;0.70;0.60;;;18.60;53.30;;;;;;10457397;28;20296;-61
2021/04/09 23:53:03;;;;;;;1.27;0.77;;;18.60;52.80;;;;;;10456135;28;20282;-63
2021/04/09 23:58:24;;;;;;;1.70;0.80;;;18.60;52.80;;;;;;10458356;28;20201;-64
